createdAt,value
2018-02-03T00:02:24.134Z,5.63
2018-02-03T00:04:53.020Z,4.53
2018-02-03T00:07:21.848Z,4.13
2018-02-03T00:09:50.706Z,4.40
2018-02-03T00:12:19.534Z,4.40
2018-02-03T00:14:48.368Z,4.10
2018-02-03T00:17:17.277Z,4.93
2018-02-03T00:19:46.114Z,4.13
2018-02-03T00:22:14.952Z,4.63
2018-02-03T00:24:43.804Z,4.93
2018-02-03T00:27:13.486Z,5.97
2018-02-03T00:29:42.314Z,4.00
2018-02-03T00:32:11.181Z,5.03
2018-02-03T00:34:40.064Z,4.93
2018-02-03T00:37:08.900Z,5.07
2018-02-03T00:39:37.808Z,4.33
2018-02-03T00:42:06.652Z,5.00
2018-02-03T00:44:35.498Z,5.63
2018-02-03T00:47:04.355Z,6.13
2018-02-03T00:49:33.192Z,5.70
2018-02-03T00:52:02.078Z,5.40
2018-02-03T00:54:31.360Z,7.10
2018-02-03T00:57:00.186Z,5.70
2018-02-03T00:59:29.022Z,5.67
2018-02-03T01:01:57.892Z,5.70
2018-02-03T01:04:26.752Z,3.87
2018-02-03T01:06:55.600Z,5.47
2018-02-03T01:09:24.518Z,7.07
2018-02-03T01:11:53.400Z,6.17
2018-02-03T01:14:22.240Z,5.53
2018-02-03T01:16:51.116Z,5.63
2018-02-03T01:19:19.996Z,4.90
2018-02-03T01:21:48.828Z,5.90
2018-02-03T01:24:17.690Z,5.33
2018-02-03T01:26:46.750Z,4.50
2018-02-03T01:29:15.599Z,4.43
2018-02-03T01:31:45.128Z,4.93
2018-02-03T01:34:13.960Z,4.93
2018-02-03T01:36:42.790Z,4.50
2018-02-03T01:39:12.368Z,5.17
2018-02-03T01:41:41.206Z,4.63
2018-02-03T01:44:10.106Z,5.53
2018-02-03T01:46:39.066Z,4.87
2018-02-03T01:49:07.896Z,5.60
2018-02-03T01:51:36.742Z,4.97
2018-02-03T01:54:05.652Z,4.63
2018-02-03T01:56:34.484Z,5.70
2018-02-03T01:59:03.324Z,4.90
2018-02-03T02:01:32.196Z,4.60
2018-02-03T02:04:01.027Z,6.40
2018-02-03T02:06:29.867Z,4.50
2018-02-03T02:08:58.772Z,5.13
2018-02-03T02:11:27.622Z,5.10
2018-02-03T02:13:56.462Z,5.10
2018-02-03T02:16:25.344Z,5.40
2018-02-03T02:18:54.499Z,5.57
2018-02-03T02:21:24.092Z,5.70
2018-02-03T02:23:52.958Z,5.90
2018-02-03T02:26:21.790Z,6.00
2018-02-03T02:28:50.668Z,5.50
2018-02-03T02:31:19.673Z,5.60
2018-02-03T02:33:48.517Z,5.87
2018-02-03T02:36:17.547Z,5.60
2018-02-03T02:38:46.470Z,5.27
2018-02-03T02:41:15.337Z,5.40
2018-02-03T02:43:44.169Z,6.33
2018-02-03T02:46:13.138Z,5.13
2018-02-03T02:48:41.979Z,5.63
2018-02-03T02:51:10.883Z,6.17
2018-02-03T02:53:40.407Z,5.73
2018-02-03T02:56:09.255Z,5.40
2018-02-03T02:58:38.100Z,5.87
2018-02-03T03:01:06.964Z,5.57
2018-02-03T03:03:35.815Z,6.07
2018-02-03T03:06:04.687Z,5.93
2018-02-03T03:08:33.562Z,6.37
2018-02-03T03:11:02.429Z,6.33
2018-02-03T03:13:31.298Z,4.63
2018-02-03T03:16:00.171Z,6.93
2018-02-03T03:18:29.029Z,5.53
2018-02-03T03:20:57.872Z,6.70
2018-02-03T03:23:27.510Z,6.57
2018-02-03T03:25:56.353Z,5.97
2018-02-03T03:28:25.190Z,5.73
2018-02-03T03:30:54.073Z,7.23
2018-02-03T03:33:22.907Z,6.10
2018-02-03T03:35:51.997Z,5.67
2018-02-03T03:38:21.563Z,6.70
2018-02-03T03:40:51.128Z,6.27
2018-02-03T03:43:19.977Z,7.50
2018-02-03T03:45:49.695Z,7.77
2018-02-03T03:48:18.525Z,9.87
2018-02-03T03:50:47.358Z,8.50
2018-02-03T03:53:17.139Z,11.10
2018-02-03T03:55:45.974Z,12.03
2018-02-03T03:58:15.379Z,11.87
2018-02-03T04:00:44.251Z,8.97
2018-02-03T04:03:13.101Z,10.50
2018-02-03T04:05:41.956Z,10.77
2018-02-03T04:08:11.039Z,10.17
2018-02-03T04:10:39.953Z,11.07
2018-02-03T04:13:08.815Z,10.23
2018-02-03T04:15:37.715Z,10.23
2018-02-03T04:18:06.571Z,7.97
2018-02-03T04:20:35.424Z,9.30
2018-02-03T04:23:04.330Z,9.60
2018-02-03T04:25:33.181Z,9.27
2018-02-03T04:28:02.075Z,8.23
2018-02-03T04:30:30.954Z,8.00
2018-02-03T04:32:59.794Z,7.80
2018-02-03T04:35:28.662Z,7.93
2018-02-03T04:37:57.527Z,8.73
2018-02-03T04:40:26.368Z,8.83
2018-02-03T04:42:55.211Z,8.33
2018-02-03T04:45:24.087Z,6.83
2018-02-03T04:47:52.930Z,8.07
2018-02-03T04:50:21.793Z,7.50
2018-02-03T04:52:50.683Z,7.93
2018-02-03T04:55:19.523Z,6.90
2018-02-03T04:57:48.968Z,9.00
2018-02-03T05:00:17.856Z,8.20
2018-02-03T05:02:47.665Z,8.47
2018-02-03T05:05:16.511Z,8.30
2018-02-03T05:07:45.411Z,8.63
2018-02-03T05:10:14.248Z,7.63
2018-02-03T05:12:43.117Z,8.90
2018-02-03T05:15:12.015Z,8.93
2018-02-03T05:17:40.856Z,8.73
2018-02-03T05:20:09.696Z,8.83
2018-02-03T05:22:38.581Z,8.90
2018-02-03T05:25:07.426Z,8.20
2018-02-03T05:27:36.262Z,7.43
2018-02-03T05:30:05.151Z,6.77
2018-02-03T05:32:33.981Z,8.30
2018-02-03T05:35:02.985Z,8.53
2018-02-03T05:37:31.937Z,8.00
2018-02-03T05:40:00.808Z,8.37
2018-02-03T05:42:29.646Z,7.20
2018-02-03T05:45:01.150Z,7.73
2018-02-03T05:47:29.989Z,8.20
2018-02-03T05:49:58.843Z,8.73
2018-02-03T05:52:27.732Z,8.23
2018-02-03T05:54:56.571Z,8.23
2018-02-03T05:57:25.467Z,8.77
2018-02-03T05:59:54.665Z,8.90
2018-02-03T06:02:23.507Z,8.77
2018-02-03T06:04:52.371Z,9.00
2018-02-03T06:07:21.229Z,8.70
2018-02-03T06:09:50.085Z,8.70
2018-02-03T06:12:19.663Z,8.80
2018-02-03T06:14:48.527Z,8.50
2018-02-03T06:17:17.375Z,8.60
2018-02-03T06:19:46.205Z,8.57
2018-02-03T06:22:15.075Z,9.00
2018-02-03T06:24:43.912Z,8.87
2018-02-03T06:27:12.735Z,9.30
2018-02-03T06:29:41.603Z,8.83
2018-02-03T06:32:10.471Z,10.27
2018-02-03T06:34:39.307Z,9.10
2018-02-03T06:37:08.193Z,10.13
2018-02-03T06:39:37.035Z,9.07
2018-02-03T06:42:06.015Z,8.60
2018-02-03T06:44:34.900Z,9.17
2018-02-03T06:47:04.501Z,9.60
2018-02-03T06:49:33.365Z,8.30
2018-02-03T06:52:02.233Z,9.37
2018-02-03T06:54:31.957Z,8.73
2018-02-03T06:57:00.819Z,9.07
2018-02-03T06:59:30.456Z,8.73
2018-02-03T07:01:59.303Z,9.37
2018-02-03T07:04:28.635Z,9.77
2018-02-03T07:06:58.403Z,9.90
2018-02-03T07:09:27.259Z,11.73
2018-02-03T07:11:56.103Z,11.03
2018-02-03T07:14:24.963Z,10.53
2018-02-03T07:16:53.831Z,10.17
2018-02-03T07:19:22.703Z,10.57
2018-02-03T07:21:51.591Z,10.37
2018-02-03T07:24:20.427Z,9.80
2018-02-03T07:26:49.275Z,10.27
2018-02-03T07:29:18.315Z,10.10
2018-02-03T07:31:47.149Z,9.67
2018-02-03T07:34:15.979Z,10.60
2018-02-03T07:36:44.849Z,10.00
2018-02-03T07:39:13.724Z,10.43
2018-02-03T07:41:42.565Z,9.80
2018-02-03T07:44:11.520Z,9.77
2018-02-03T07:46:40.375Z,10.90
2018-02-03T07:49:09.236Z,10.57
2018-02-03T07:51:38.112Z,10.60
2018-02-03T07:54:06.962Z,11.13
2018-02-03T07:56:35.809Z,10.73
2018-02-03T07:59:04.708Z,21.87
2018-02-03T08:01:33.559Z,10.60
2018-02-03T08:04:02.415Z,9.97
2018-02-03T08:06:31.280Z,11.23
2018-02-03T08:09:00.118Z,10.67
2018-02-03T08:11:29.958Z,10.53
2018-02-03T08:13:58.943Z,10.50
2018-02-03T08:16:28.420Z,10.50
2018-02-03T08:18:57.260Z,11.43
2018-02-03T08:21:26.140Z,11.20
2018-02-03T08:23:54.989Z,11.90
2018-02-03T08:26:23.852Z,10.73
2018-02-03T08:28:52.732Z,11.30
2018-02-03T08:31:21.582Z,11.47
2018-02-03T08:33:50.990Z,12.70
2018-02-03T08:36:19.953Z,12.63
2018-02-03T08:38:48.814Z,12.37
2018-02-03T08:41:17.697Z,11.67
2018-02-03T08:43:48.452Z,12.00
2018-02-03T08:46:17.544Z,10.70
2018-02-03T08:48:46.517Z,12.10
2018-02-03T08:51:15.402Z,12.03
2018-02-03T08:53:44.282Z,12.47
2018-02-03T08:56:13.176Z,12.47
2018-02-03T08:58:42.022Z,11.83
2018-02-03T09:01:10.952Z,11.70
2018-02-03T09:03:39.809Z,11.63
2018-02-03T09:06:08.642Z,11.07
2018-02-03T09:08:37.488Z,12.17
2018-02-03T09:11:06.348Z,12.67
2018-02-03T09:13:35.184Z,11.57
2018-02-03T09:16:04.076Z,13.30
2018-02-03T09:18:32.936Z,13.37
2018-02-03T09:21:02.246Z,13.00
2018-02-03T09:23:31.098Z,14.33
2018-02-03T09:26:00.037Z,13.53
2018-02-03T09:28:28.892Z,13.77
2018-02-03T09:30:57.777Z,14.43
2018-02-03T09:33:27.410Z,14.07
2018-02-03T09:35:56.793Z,14.57
2018-02-03T09:38:25.634Z,15.70
2018-02-03T09:40:54.534Z,14.90
2018-02-03T09:43:23.976Z,14.70
2018-02-03T09:45:52.826Z,14.67
2018-02-03T09:48:21.682Z,15.90
2018-02-03T09:50:50.565Z,16.57
2018-02-03T09:53:19.438Z,16.00
2018-02-03T09:55:48.328Z,16.13
2018-02-03T09:58:17.169Z,15.23
2018-02-03T10:00:46.013Z,14.67
2018-02-03T10:03:14.922Z,16.10
2018-02-03T10:05:43.802Z,16.93
2018-02-03T10:08:12.639Z,18.00
2018-02-03T10:10:41.558Z,19.13
2018-02-03T10:13:10.409Z,17.20
2018-02-03T10:15:39.248Z,23.30
2018-02-03T10:18:08.137Z,21.70
2018-02-03T10:20:37.140Z,33.40
2018-02-03T10:23:05.992Z,21.70
2018-02-03T10:25:34.913Z,18.17
2018-02-03T10:28:03.836Z,18.83
2018-02-03T10:30:33.224Z,16.83
2018-02-03T10:33:02.163Z,17.43
2018-02-03T10:35:31.029Z,17.07
2018-02-03T10:37:59.928Z,16.57
2018-02-03T10:40:29.628Z,14.50
2018-02-03T10:42:58.930Z,16.47
2018-02-03T10:45:28.504Z,16.53
2018-02-03T10:47:57.720Z,16.03
2018-02-03T10:50:26.616Z,15.77
2018-02-03T10:52:55.478Z,14.60
2018-02-03T10:55:24.318Z,14.00
2018-02-03T10:57:53.164Z,11.87
2018-02-03T11:00:22.004Z,11.20
2018-02-03T11:02:52.388Z,11.90
2018-02-03T11:05:21.278Z,14.00
2018-02-03T11:07:50.252Z,13.03
2018-02-03T11:10:19.110Z,13.73
2018-02-03T11:12:47.984Z,13.77
2018-02-03T11:15:16.826Z,13.57
2018-02-03T11:17:45.700Z,10.87
2018-02-03T11:20:14.543Z,6.63
2018-02-03T11:22:43.416Z,6.93
2018-02-03T11:25:12.318Z,6.50
2018-02-03T11:27:41.156Z,6.67
2018-02-03T11:30:09.988Z,5.90
2018-02-03T11:32:38.913Z,5.77
2018-02-03T11:35:07.794Z,5.67
2018-02-03T11:37:36.656Z,5.20
2018-02-03T11:40:05.659Z,5.23
2018-02-03T11:42:34.498Z,5.20
2018-02-03T11:45:03.348Z,5.00
2018-02-03T11:47:32.200Z,5.13
2018-02-03T11:50:02.576Z,4.00
2018-02-03T11:52:31.512Z,4.33
2018-02-03T11:55:00.374Z,2.90
2018-02-03T11:57:29.220Z,3.20
2018-02-03T11:59:58.764Z,3.40
2018-02-03T12:02:27.654Z,3.33
2018-02-03T12:04:56.494Z,2.73
2018-02-03T12:07:25.380Z,2.37
2018-02-03T12:09:54.342Z,1.27
2018-02-03T12:12:23.176Z,1.80
2018-02-03T12:14:52.006Z,1.73
2018-02-03T12:17:20.862Z,1.70
2018-02-03T12:19:49.708Z,1.67
2018-02-03T12:22:18.571Z,2.73
2018-02-03T12:24:47.471Z,3.07
2018-02-03T12:27:16.316Z,3.27
2018-02-03T12:29:45.193Z,4.00
2018-02-03T12:32:14.073Z,4.03
2018-02-03T12:34:44.814Z,4.03
2018-02-03T12:37:15.505Z,4.33
2018-02-03T12:39:44.692Z,4.07
2018-02-03T12:47:23.572Z,4.90
2018-02-03T12:52:29.265Z,5.27
2018-02-03T12:54:58.492Z,7.90
2018-02-03T13:00:08.441Z,3.63
2018-02-03T13:02:45.927Z,4.53
2018-02-03T13:05:15.972Z,4.40
2018-02-03T13:07:44.833Z,4.60
2018-02-03T13:10:13.676Z,4.17
2018-02-03T13:12:42.614Z,4.27
2018-02-03T13:15:11.497Z,4.40
2018-02-03T13:17:40.348Z,4.50
2018-02-03T13:20:09.264Z,4.50
2018-02-03T13:22:39.112Z,4.77
2018-02-03T13:25:08.371Z,5.10
2018-02-03T13:27:38.088Z,6.43
2018-02-03T13:30:11.368Z,7.13
2018-02-03T13:32:41.071Z,7.20
2018-02-03T13:35:09.915Z,7.90
2018-02-03T13:37:38.793Z,7.10
2018-02-03T13:40:07.657Z,8.13
2018-02-03T13:42:36.524Z,7.73
2018-02-03T13:45:05.441Z,8.17
2018-02-03T13:47:35.329Z,7.63
2018-02-03T13:50:04.194Z,7.20
2018-02-03T13:52:33.045Z,7.23
2018-02-03T13:55:01.909Z,6.83
2018-02-03T13:57:30.987Z,7.50
2018-02-03T14:00:00.231Z,7.20
2018-02-03T14:02:29.159Z,7.37
2018-02-03T14:04:58.003Z,6.70
2018-02-03T14:07:28.393Z,6.70
2018-02-03T14:09:58.058Z,6.00
2018-02-03T14:12:26.905Z,5.50
2018-02-03T14:14:55.747Z,5.53
2018-02-03T14:17:24.621Z,5.63
2018-02-03T14:19:53.466Z,7.20
2018-02-03T14:22:22.669Z,5.67
2018-02-03T14:24:52.081Z,5.53
2018-02-03T14:27:20.914Z,5.77
2018-02-03T14:29:49.767Z,5.27
2018-02-03T14:32:18.631Z,5.83
2018-02-03T14:34:49.014Z,5.90
2018-02-03T14:37:21.289Z,6.30
2018-02-03T14:39:55.794Z,6.77
2018-02-03T14:42:24.676Z,6.10
2018-02-03T14:47:29.987Z,7.17
2018-02-03T14:49:58.892Z,7.50
2018-02-03T14:52:27.729Z,7.20
2018-02-03T14:54:57.516Z,7.10
2018-02-03T14:57:26.352Z,7.77
2018-02-03T14:59:55.194Z,7.60
2018-02-03T15:02:24.044Z,8.30
2018-02-03T15:04:52.895Z,8.33
2018-02-03T15:07:21.749Z,7.97
2018-02-03T15:09:50.647Z,8.07
2018-02-03T15:12:19.516Z,9.00
2018-02-03T15:14:49.311Z,8.53
2018-02-03T15:17:18.256Z,34.93
2018-02-03T15:19:47.110Z,9.03
2018-02-03T15:22:25.915Z,9.70
2018-02-03T15:24:54.759Z,9.23
2018-02-03T15:27:23.599Z,9.60
2018-02-03T15:29:52.647Z,9.40
2018-02-03T15:32:21.523Z,19.97
2018-02-03T15:34:50.391Z,9.40
2018-02-03T15:37:20.129Z,20.13
2018-02-03T15:39:49.407Z,8.80
2018-02-03T15:42:18.265Z,9.57
2018-02-03T15:44:47.142Z,10.60
2018-02-03T15:47:15.992Z,12.20
2018-02-03T15:49:44.891Z,11.60
2018-02-03T15:52:13.775Z,10.77
2018-02-03T15:54:42.624Z,10.97
2018-02-03T15:57:12.789Z,10.33
2018-02-03T15:59:41.683Z,10.87
2018-02-03T16:02:10.529Z,10.20
2018-02-03T16:04:40.395Z,11.00
2018-02-03T16:07:09.298Z,10.87
2018-02-03T16:09:38.167Z,10.33
2018-02-03T16:12:07.012Z,10.43
2018-02-03T16:14:35.883Z,10.43
2018-02-03T16:17:04.757Z,10.93
2018-02-03T16:19:33.597Z,9.43
2018-02-03T16:22:02.471Z,9.47
2018-02-03T16:24:31.303Z,8.20
2018-02-03T16:27:04.302Z,10.80
2018-02-03T16:29:35.017Z,8.73
2018-02-03T16:32:05.664Z,9.60
2018-02-03T16:34:34.557Z,8.60
2018-02-03T16:37:03.447Z,8.70
2018-02-03T16:39:32.311Z,10.60
2018-02-03T16:42:01.175Z,12.03
2018-02-03T16:44:30.436Z,12.03
2018-02-03T16:46:59.601Z,10.87
2018-02-03T16:49:33.310Z,13.43
2018-02-03T16:52:03.901Z,12.13
2018-02-03T16:54:33.721Z,14.27
2018-02-03T16:59:37.538Z,9.03
2018-02-03T17:02:06.390Z,12.30
2018-02-03T17:04:36.405Z,11.80
2018-02-03T17:07:08.779Z,10.57
2018-02-03T17:09:37.619Z,13.03
2018-02-03T17:12:06.480Z,10.40
2018-02-03T17:14:35.337Z,9.10
2018-02-03T17:17:05.299Z,10.73
2018-02-03T17:19:34.192Z,10.17
2018-02-03T17:22:03.918Z,12.37
2018-02-03T17:24:32.780Z,13.20
2018-02-03T17:27:01.645Z,12.77
2018-02-03T17:29:30.535Z,11.80
2018-02-03T17:31:59.407Z,13.17
2018-02-03T17:34:28.280Z,10.27
2018-02-03T17:37:03.048Z,12.47
2018-02-03T17:39:33.070Z,13.37
2018-02-03T17:42:03.521Z,9.57
2018-02-03T17:44:33.180Z,13.63
2018-02-03T17:47:04.622Z,11.90
2018-02-03T17:49:33.482Z,12.57
2018-02-03T17:52:05.914Z,10.83
2018-02-03T17:54:34.784Z,12.87
2018-02-03T17:57:19.340Z,13.20
2018-02-03T17:59:48.199Z,14.10
2018-02-03T18:02:17.416Z,12.67
2018-02-03T18:04:46.260Z,10.47
2018-02-03T18:07:15.112Z,12.87
2018-02-03T18:09:43.962Z,11.90
2018-02-03T18:12:12.810Z,12.23
2018-02-03T18:14:41.692Z,11.93
2018-02-03T18:17:11.552Z,11.70
2018-02-03T18:19:41.296Z,11.70
2018-02-03T18:24:46.319Z,10.57
2018-02-03T18:27:15.234Z,11.97
2018-02-03T18:29:44.905Z,10.27
2018-02-03T18:32:14.652Z,12.27
2018-02-03T18:34:43.796Z,11.10
2018-02-03T18:37:12.688Z,10.37
2018-02-03T18:39:47.724Z,14.27
2018-02-03T18:44:53.911Z,22.67
2018-02-03T18:47:23.466Z,23.87
2018-02-03T18:49:59.198Z,22.83
2018-02-03T19:06:32.533Z,22.17
2018-02-03T19:09:01.412Z,18.53
2018-02-03T19:14:05.524Z,17.53
2018-02-03T19:16:34.408Z,15.20
2018-02-03T19:19:03.316Z,16.67
2018-02-03T19:21:32.218Z,13.53
2018-02-03T19:24:01.230Z,18.50
2018-02-03T19:26:31.666Z,15.77
2018-02-03T19:29:00.552Z,16.80
2018-02-03T19:31:29.451Z,14.80
2018-02-03T19:33:58.323Z,16.77
2018-02-03T19:36:27.182Z,16.07
2018-02-03T19:39:00.783Z,13.87
2018-02-03T19:41:29.702Z,17.00
2018-02-03T19:43:59.345Z,15.93
2018-02-03T19:46:28.757Z,18.13
2018-02-03T19:48:57.635Z,18.37
2018-02-03T19:51:28.035Z,21.17
2018-02-03T19:53:56.920Z,15.27
2018-02-03T19:56:25.789Z,19.27
2018-02-03T19:58:54.654Z,18.40
2018-02-03T20:01:23.544Z,15.80
2018-02-03T20:03:52.389Z,17.33
2018-02-03T20:06:21.239Z,18.03
2018-02-03T20:08:50.152Z,14.13
2018-02-03T20:11:19.044Z,16.43
2018-02-03T20:13:47.888Z,18.20
2018-02-03T20:16:16.784Z,17.53
2018-02-03T20:18:45.633Z,14.13
2018-02-03T20:21:15.117Z,14.90
2018-02-03T20:23:43.977Z,15.27
2018-02-03T20:26:12.835Z,12.97
2018-02-03T20:28:41.687Z,14.13
2018-02-03T20:31:10.578Z,14.33
2018-02-03T20:33:39.504Z,15.90
2018-02-03T20:36:08.352Z,14.93
2018-02-03T20:38:37.214Z,16.37
2018-02-03T20:41:06.067Z,15.53
2018-02-03T20:43:34.928Z,15.43
2018-02-03T20:46:03.832Z,13.30
2018-02-03T20:48:33.235Z,15.40
2018-02-03T20:51:02.099Z,15.50
2018-02-03T20:53:31.062Z,14.63
2018-02-03T20:55:59.936Z,18.70
2018-02-03T20:58:28.775Z,22.77
2018-02-03T21:00:57.659Z,16.40
2018-02-03T21:03:26.550Z,15.60
2018-02-03T21:05:55.406Z,15.83
2018-02-03T21:08:24.288Z,13.87
2018-02-03T21:10:53.178Z,14.93
2018-02-03T21:13:22.033Z,16.13
2018-02-03T21:15:50.958Z,14.37
2018-02-03T21:18:20.786Z,14.40
2018-02-03T21:20:49.647Z,13.40
2018-02-03T21:23:19.018Z,12.33
2018-02-03T21:25:47.888Z,14.00
2018-02-03T21:28:16.730Z,14.50
2018-02-03T21:30:45.632Z,12.07
2018-02-03T21:33:14.538Z,14.77
2018-02-03T21:35:43.401Z,14.57
2018-02-03T21:38:12.275Z,13.10
2018-02-03T21:40:41.126Z,13.20
2018-02-03T21:43:10.574Z,13.87
2018-02-03T21:45:40.366Z,13.80
2018-02-03T21:48:10.182Z,13.43
2018-02-03T21:50:39.099Z,14.27
2018-02-03T21:53:07.987Z,15.07
2018-02-03T21:55:36.875Z,15.30
2018-02-03T21:58:15.340Z,15.10
2018-02-03T22:00:44.586Z,14.60
2018-02-03T22:03:13.427Z,16.07
2018-02-03T22:05:43.005Z,15.60
2018-02-03T22:08:12.223Z,14.73
2018-02-03T22:10:41.318Z,15.57
2018-02-03T22:13:10.360Z,15.77
2018-02-03T22:15:39.211Z,17.23
2018-02-03T22:18:08.055Z,15.43
2018-02-03T22:20:36.921Z,17.40
2018-02-03T22:23:05.776Z,18.97
2018-02-03T22:25:34.676Z,19.43
2018-02-03T22:28:03.659Z,19.83
2018-02-03T22:30:33.048Z,18.77
2018-02-03T22:33:01.931Z,18.40
2018-02-03T22:35:30.813Z,17.37
2018-02-03T22:38:00.345Z,16.57
2018-02-03T22:40:29.307Z,16.53
2018-02-03T22:42:58.192Z,15.83
2018-02-03T22:45:27.049Z,15.13
2018-02-03T22:47:55.891Z,14.83
2018-02-03T22:50:24.765Z,13.87
2018-02-03T22:52:53.643Z,14.67
2018-02-03T22:55:22.991Z,14.03
2018-02-03T22:57:51.937Z,12.57
2018-02-03T23:00:20.806Z,13.10
2018-02-03T23:02:55.735Z,12.77
2018-02-03T23:05:24.613Z,12.90
2018-02-03T23:07:53.967Z,12.97
2018-02-03T23:10:23.072Z,12.47
2018-02-03T23:12:52.276Z,11.73
2018-02-03T23:15:21.191Z,12.20
2018-02-03T23:17:50.445Z,11.70
2018-02-03T23:20:19.284Z,11.60
2018-02-03T23:22:48.149Z,10.43
2018-02-03T23:25:17.019Z,10.47
2018-02-03T23:27:45.863Z,8.90
2018-02-03T23:30:14.715Z,8.83
2018-02-03T23:32:43.577Z,9.37
2018-02-03T23:35:12.407Z,9.70
2018-02-03T23:37:42.299Z,9.83
2018-02-03T23:40:11.198Z,10.23
2018-02-03T23:42:40.048Z,9.57
2018-02-03T23:45:08.968Z,9.03
2018-02-03T23:47:37.853Z,9.67
2018-02-03T23:50:06.715Z,9.93
2018-02-03T23:52:35.553Z,9.30
2018-02-03T23:55:04.417Z,9.83
2018-02-03T23:57:33.324Z,9.80
